Time;durP1;ratioP1;P1;durP2;ratioP2;P2;SDS_P1;SDS_P2;PMS_P1;PMS_P2;Temp;Humidity;BMP_temperature;BMP_pressure;BME280_temperature;BME280_humidity;BME280_pressure;Samples;Min_cycle;Max_cycle;Signal;HPM_P1;HPM_P2
2022/09/19 00:01:39;;;;;;;0.98;0.50;;;10.00;99.90;;;;;;5109067;27;20072;-47
2022/09/19 00:04:12;;;;;;;6.90;0.82;;;9.90;99.90;;;;;;5100359;28;20123;-48
2022/09/19 00:06:41;;;;;;;1.92;0.60;;;9.90;99.90;;;;;;5113315;28;20054;-46
2022/09/19 00:09:11;;;;;;;2.17;0.75;;;9.70;99.90;;;;;;5113060;28;20143;-46
2022/09/19 00:11:40;;;;;;;3.03;0.80;;;9.50;99.90;;;;;;5094947;28;20046;-47
2022/09/19 00:14:09;;;;;;;1.60;0.90;;;9.40;99.90;;;;;;5107300;28;20048;-46
2022/09/19 00:16:38;;;;;;;4.75;1.05;;;9.20;99.90;;;;;;5113248;28;20046;-46
2022/09/19 00:19:08;;;;;;;3.55;1.10;;;9.10;99.90;;;;;;5112547;28;20070;-47
2022/09/19 00:21:39;;;;;;;4.47;1.00;;;9.00;99.90;;;;;;5112037;28;20051;-47
2022/09/19 00:26:55;;;;;;;4.38;0.95;;;8.80;99.90;;;;;;5092498;28;20127;-46
2022/09/19 00:29:23;;;;;;;2.40;1.00;;;8.70;99.90;;;;;;5113140;28;20514;-46
2022/09/19 00:31:51;;;;;;;5.25;1.33;;;8.80;99.90;;;;;;5079838;28;20063;-46
2022/09/19 00:34:19;;;;;;;4.78;1.08;;;8.70;99.90;;;;;;5092146;28;20062;-45
2022/09/19 00:36:47;;;;;;;3.60;1.20;;;8.70;99.90;;;;;;5077783;28;20083;-45
2022/09/19 00:39:16;;;;;;;3.45;1.30;;;8.70;99.90;;;;;;5091964;28;20098;-45
2022/09/19 00:41:44;;;;;;;2.05;1.15;;;8.70;99.90;;;;;;5093932;28;20071;-47
2022/09/19 00:44:26;;;;;;;3.53;0.98;;;8.80;99.90;;;;;;5112239;28;20054;-46
2022/09/19 00:46:59;;;;;;;5.40;1.23;;;8.80;99.90;;;;;;5107094;28;20035;-45
2022/09/19 00:49:30;;;;;;;5.53;1.17;;;8.80;99.90;;;;;;5094322;28;20123;-47
2022/09/19 00:52:03;;;;;;;4.13;0.80;;;8.80;99.90;;;;;;5086057;28;20379;-45
2022/09/19 00:54:42;;;;;;;2.28;0.90;;;8.70;99.90;;;;;;5091767;28;20494;-46
2022/09/19 00:57:12;;;;;;;2.17;1.00;;;8.60;99.90;;;;;;5073310;28;20047;-46
2022/09/19 00:59:43;;;;;;;2.85;0.95;;;8.60;99.90;;;;;;5073465;28;20044;-45
2022/09/19 01:02:10;;;;;;;3.17;0.90;;;8.60;99.90;;;;;;5079398;28;20087;-46
2022/09/19 01:04:37;;;;;;;3.25;0.90;;;8.60;99.90;;;;;;5091627;28;20063;-47
2022/09/19 01:07:10;;;;;;;2.38;0.90;;;8.70;99.90;;;;;;5107219;28;20059;-45
2022/09/19 01:09:53;;;;;;;1.30;0.90;;;8.70;99.90;;;;;;5104759;28;20081;-46
2022/09/19 01:12:32;;;;;;;3.72;0.95;;;8.60;99.90;;;;;;5093417;28;20484;-46
2022/09/19 01:15:19;;;;;;;3.35;1.30;;;8.60;99.90;;;;;;5089428;28;20040;-47
2022/09/19 01:17:49;;;;;;;2.25;1.10;;;8.60;99.90;;;;;;5087311;28;20054;-46
2022/09/19 01:20:36;;;;;;;2.03;1.20;;;8.60;99.90;;;;;;5112024;28;20105;-47
2022/09/19 01:23:49;;;;;;;1.75;0.93;;;8.60;99.90;;;;;;5108484;28;20495;-46
2022/09/19 01:26:36;;;;;;;1.08;0.85;;;8.60;99.90;;;;;;5110036;28;20592;-46
2022/09/19 01:29:35;;;;;;;2.25;0.70;;;8.60;99.90;;;;;;5093473;28;20052;-47
2022/09/19 01:32:08;;;;;;;7.27;0.90;;;8.60;99.90;;;;;;5066102;28;20048;-47
2022/09/19 01:34:42;;;;;;;3.38;0.70;;;8.60;99.90;;;;;;5085673;28;20047;-46
2022/09/19 01:37:22;;;;;;;3.35;0.80;;;8.60;99.90;;;;;;5093557;28;20051;-46
2022/09/19 01:39:51;;;;;;;3.28;0.95;;;8.50;99.90;;;;;;5085821;28;20493;-46
2022/09/19 01:42:20;;;;;;;4.50;0.80;;;8.50;99.90;;;;;;5073465;28;20063;-48
2022/09/19 01:44:47;;;;;;;2.03;0.85;;;8.50;99.90;;;;;;5091679;28;20090;-47
2022/09/19 01:47:15;;;;;;;1.75;0.80;;;8.50;99.90;;;;;;5091340;28;20047;-45
2022/09/19 01:49:51;;;;;;;1.05;0.80;;;8.50;99.90;;;;;;5092869;28;20040;-46
2022/09/19 01:52:32;;;;;;;0.90;0.57;;;8.50;99.90;;;;;;5090301;28;20036;-48
2022/09/19 01:55:21;;;;;;;0.47;0.43;;;8.40;99.90;;;;;;5088840;28;20496;-46
2022/09/19 01:58:16;;;;;;;2.13;0.57;;;8.30;99.90;;;;;;5092655;28;20043;-46
2022/09/19 02:01:08;;;;;;;1.00;0.47;;;8.20;99.90;;;;;;5089136;28;20074;-45
2022/09/19 02:03:55;;;;;;;2.28;0.50;;;8.30;99.90;;;;;;5072644;28;20067;-46
2022/09/19 02:06:47;;;;;;;0.50;0.40;;;8.30;99.90;;;;;;5072246;28;20052;-45
2022/09/19 02:09:43;;;;;;;0.68;0.55;;;8.30;99.90;;;;;;5076193;28;20048;-45
2022/09/19 02:12:15;;;;;;;0.63;0.50;;;8.30;99.90;;;;;;5098941;28;20038;-45
2022/09/19 02:14:55;;;;;;;1.75;0.50;;;8.20;99.90;;;;;;5072642;28;20044;-46
2022/09/19 02:17:34;;;;;;;4.68;0.70;;;8.20;99.90;;;;;;5073174;28;20508;-47
2022/09/19 02:20:13;;;;;;;2.25;0.40;;;8.10;99.90;;;;;;5076278;28;20052;-46
2022/09/19 02:22:43;;;;;;;;;;;8.20;99.90;;;;;;5086646;28;20051;-45
2022/09/19 02:25:20;;;;;;;2.60;1.17;;;8.10;99.90;;;;;;5089492;28;19972;-45
2022/09/19 02:27:53;;;;;;;0.82;0.60;;;8.20;99.90;;;;;;5075330;28;20050;-45
2022/09/19 02:30:21;;;;;;;1.23;0.55;;;8.10;99.90;;;;;;5076913;28;20089;-45
2022/09/19 02:32:50;;;;;;;0.60;0.60;;;8.10;99.90;;;;;;5094810;28;20072;-46
2022/09/19 02:35:34;;;;;;;0.85;0.60;;;8.10;99.90;;;;;;5076086;28;20617;-45
2022/09/19 02:38:13;;;;;;;0.47;0.40;;;8.10;99.90;;;;;;5076569;28;20044;-46
2022/09/19 02:41:00;;;;;;;0.73;0.52;;;8.10;99.90;;;;;;5083833;28;20059;-46
2022/09/19 02:43:52;;;;;;;1.35;0.57;;;8.10;99.90;;;;;;5076319;28;20052;-46
2022/09/19 02:46:43;;;;;;;1.75;0.60;;;8.00;99.90;;;;;;5094117;28;20044;-46
2022/09/19 02:49:17;;;;;;;0.55;0.40;;;8.00;99.90;;;;;;5079331;28;20048;-46
2022/09/19 02:51:54;;;;;;;0.77;0.65;;;8.00;99.90;;;;;;5094710;28;20042;-46
2022/09/19 02:54:29;;;;;;;1.50;0.60;;;8.00;99.90;;;;;;5093249;28;20043;-46
2022/09/19 02:57:01;;;;;;;2.75;0.40;;;8.00;99.90;;;;;;5094618;28;20039;-46
2022/09/19 02:59:33;;;;;;;1.70;0.50;;;8.00;99.90;;;;;;5091526;28;20039;-45
2022/09/19 03:02:08;;;;;;;1.08;0.30;;;8.00;99.90;;;;;;5096657;28;20043;-46
2022/09/19 03:04:40;;;;;;;0.22;0.20;;;8.00;99.90;;;;;;5095966;28;20502;-47
2022/09/19 03:07:11;;;;;;;0.68;0.50;;;8.00;99.90;;;;;;5109333;28;20063;-46
2022/09/19 03:09:48;;;;;;;1.33;0.40;;;8.00;99.90;;;;;;5096461;28;20043;-46
2022/09/19 03:12:27;;;;;;;1.35;0.30;;;7.90;99.90;;;;;;5096327;28;20403;-46
2022/09/19 03:14:58;;;;;;;0.77;0.32;;;7.80;99.90;;;;;;5114123;28;20043;-46
2022/09/19 03:17:43;;;;;;;0.43;0.35;;;7.90;99.90;;;;;;5083503;28;20040;-45
2022/09/19 03:20:13;;;;;;;0.95;0.40;;;8.00;99.90;;;;;;5095231;28;20407;-46
2022/09/19 03:22:42;;;;;;;1.73;0.30;;;8.00;99.90;;;;;;5076808;28;20074;-46
2022/09/19 03:25:11;;;;;;;2.15;0.22;;;8.00;99.90;;;;;;5078932;28;20131;-49
2022/09/19 03:27:39;;;;;;;1.15;0.40;;;7.90;99.90;;;;;;5087839;28;20101;-46
2022/09/19 03:30:09;;;;;;;0.88;0.47;;;7.90;99.90;;;;;;5075159;28;20056;-46
2022/09/19 03:32:42;;;;;;;1.90;0.50;;;7.80;99.90;;;;;;5088950;28;20451;-45
2022/09/19 03:35:10;;;;;;;2.53;0.32;;;7.80;99.90;;;;;;5075551;28;20066;-47
2022/09/19 03:37:37;;;;;;;1.05;0.40;;;7.80;99.90;;;;;;5079527;28;20138;-46
2022/09/19 03:40:05;;;;;;;0.50;0.38;;;7.80;99.90;;;;;;5075804;28;20472;-45
2022/09/19 03:42:34;;;;;;;;;;;7.70;99.90;;;;;;5093827;28;20462;-48
2022/09/19 03:45:02;;;;;;;0.47;0.40;;;7.70;99.90;;;;;;5082445;28;19927;-46
2022/09/19 03:47:30;;;;;;;5.18;0.50;;;7.70;99.90;;;;;;5083910;28;20040;-48
2022/09/19 03:49:58;;;;;;;0.98;0.55;;;7.70;99.90;;;;;;5079663;28;20470;-48
2022/09/19 03:52:27;;;;;;;2.55;0.50;;;7.70;99.90;;;;;;5081918;28;20032;-45
2022/09/19 03:54:54;;;;;;;0.90;0.50;;;7.70;99.90;;;;;;5077391;28;20040;-48
2022/09/19 03:57:21;;;;;;;0.40;0.20;;;7.70;99.90;;;;;;5077324;28;20048;-46
2022/09/19 03:59:48;;;;;;;0.30;0.30;;;7.70;99.90;;;;;;5079869;28;20122;-46
2022/09/19 04:02:15;;;;;;;0.88;0.80;;;7.70;99.90;;;;;;5077935;28;20521;-45
2022/09/19 04:04:42;;;;;;;1.20;0.50;;;7.60;99.90;;;;;;5094473;28;20046;-47
2022/09/19 04:07:09;;;;;;;1.15;0.60;;;7.50;99.90;;;;;;5079952;28;20143;-46
2022/09/19 04:09:39;;;;;;;2.72;0.60;;;7.60;99.90;;;;;;5074481;28;20047;-46
2022/09/19 04:12:06;;;;;;;1.63;0.75;;;7.60;99.90;;;;;;5100906;28;20036;-48
2022/09/19 04:14:36;;;;;;;4.05;1.48;;;7.60;99.90;;;;;;5094535;28;20047;-45
2022/09/19 04:17:06;;;;;;;2.70;1.20;;;7.60;99.90;;;;;;5089523;28;20039;-46
2022/09/19 04:19:52;;;;;;;2.40;1.38;;;7.60;99.90;;;;;;5081466;28;20036;-46
2022/09/19 04:22:26;;;;;;;;;;;7.70;99.90;;;;;;5099586;28;20127;-47
2022/09/19 04:25:15;;;;;;;1.90;0.98;;;7.60;99.90;;;;;;5101597;28;20011;-45
2022/09/19 04:27:56;;;;;;;1.73;0.90;;;7.60;99.90;;;;;;5082496;28;20047;-46
2022/09/19 04:30:23;;;;;;;0.98;0.52;;;7.60;99.90;;;;;;5066458;28;20048;-45
2022/09/19 04:32:53;;;;;;;0.63;0.43;;;7.60;99.90;;;;;;5079832;28;20455;-45
2022/09/19 04:35:20;;;;;;;0.95;0.60;;;7.60;99.90;;;;;;5095073;28;20044;-45
2022/09/19 04:37:47;;;;;;;0.85;0.40;;;7.60;99.90;;;;;;5092211;28;20066;-46
2022/09/19 04:40:16;;;;;;;1.20;0.30;;;7.60;99.90;;;;;;5082737;28;20130;-46
2022/09/19 04:42:44;;;;;;;0.88;0.50;;;7.70;99.90;;;;;;5087271;28;20047;-46
2022/09/19 04:45:20;;;;;;;1.08;0.30;;;7.60;99.90;;;;;;5081926;28;20068;-45
2022/09/19 04:48:19;;;;;;;0.90;0.57;;;7.70;99.90;;;;;;5077894;28;20042;-45
2022/09/19 04:50:50;;;;;;;0.40;0.40;;;7.70;99.90;;;;;;5092932;28;20085;-45
2022/09/19 04:53:23;;;;;;;1.95;0.30;;;7.60;99.90;;;;;;5093644;28;20059;-45
2022/09/19 04:55:54;;;;;;;0.93;0.30;;;7.60;99.90;;;;;;5087996;28;20044;-45
2022/09/19 04:58:21;;;;;;;0.95;0.43;;;7.40;99.90;;;;;;5092052;28;20051;-45
2022/09/19 05:00:53;;;;;;;2.83;0.40;;;7.40;99.90;;;;;;5074196;28;20040;-46
2022/09/19 05:03:25;;;;;;;0.82;0.22;;;7.40;99.90;;;;;;5074251;28;20512;-45
2022/09/19 05:05:54;;;;;;;1.65;0.98;;;7.40;99.90;;;;;;5090013;28;20424;-46
2022/09/19 05:08:32;;;;;;;1.10;0.52;;;7.30;99.90;;;;;;5073857;28;20052;-46
2022/09/19 05:11:15;;;;;;;1.20;0.47;;;7.30;99.90;;;;;;5079202;28;20405;-46
2022/09/19 05:13:41;;;;;;;;;;;7.30;99.90;;;;;;5091103;28;20032;-45
2022/09/19 05:16:13;;;;;;;1.33;0.57;;;7.20;99.90;;;;;;5082947;28;20291;-45
2022/09/19 05:18:49;;;;;;;2.72;1.75;;;7.20;99.90;;;;;;5082129;28;20059;-45
2022/09/19 05:21:16;;;;;;;1.77;1.00;;;7.20;99.90;;;;;;5085381;28;20496;-45
2022/09/19 05:23:44;;;;;;;;;;;7.20;99.90;;;;;;5093007;28;20035;-45
2022/09/19 05:26:15;;;;;;;2.08;0.50;;;7.10;99.90;;;;;;5090028;28;20402;-46
2022/09/19 05:28:47;;;;;;;1.23;0.50;;;7.10;99.90;;;;;;5092398;28;20095;-45
2022/09/19 05:31:20;;;;;;;0.47;0.30;;;7.20;99.90;;;;;;5083732;28;20428;-45
2022/09/19 05:34:19;;;;;;;0.63;0.40;;;7.10;99.90;;;;;;5075803;28;20058;-45
2022/09/19 05:36:47;;;;;;;0.85;0.50;;;7.20;99.90;;;;;;5093440;28;20043;-45
2022/09/19 05:39:37;;;;;;;0.75;0.30;;;7.20;99.90;;;;;;5098659;28;20529;-45
2022/09/19 05:42:23;;;;;;;0.50;0.40;;;7.20;99.90;;;;;;5082722;28;20134;-45
2022/09/19 05:44:51;;;;;;;1.30;0.25;;;7.20;99.90;;;;;;5072661;28;20044;-46
2022/09/19 05:47:17;;;;;;;2.83;0.55;;;7.20;99.90;;;;;;5095631;28;20052;-45
2022/09/19 05:49:44;;;;;;;0.55;0.40;;;7.20;99.90;;;;;;5072528;28;20048;-45
2022/09/19 05:54:57;;;;;;;1.73;0.38;;;7.30;99.90;;;;;;5074961;28;20044;-45
2022/09/19 05:57:48;;;;;;;3.60;0.52;;;7.40;99.90;;;;;;5091548;28;20047;-45
2022/09/19 06:00:15;;;;;;;1.52;0.82;;;7.50;99.90;;;;;;5072806;28;20040;-45
2022/09/19 06:02:42;;;;;;;1.02;0.80;;;7.60;99.90;;;;;;5109327;28;20448;-46
2022/09/19 06:05:11;;;;;;;0.63;0.55;;;7.60;99.90;;;;;;5097098;28;20040;-47
2022/09/19 06:07:41;;;;;;;1.05;0.60;;;7.80;99.90;;;;;;5088587;22;20180;-44
2022/09/19 06:10:08;;;;;;;1.95;0.80;;;7.90;99.90;;;;;;5058355;28;20048;-44
2022/09/19 06:12:35;;;;;;;3.28;1.27;;;8.00;99.90;;;;;;5070927;28;20046;-44
2022/09/19 06:15:02;;;;;;;3.05;1.20;;;8.20;99.90;;;;;;5075888;28;20406;-44
2022/09/19 06:17:29;;;;;;;1.48;0.98;;;8.30;99.90;;;;;;5077758;28;20439;-44
2022/09/19 06:20:08;;;;;;;1.95;1.40;;;8.30;99.90;;;;;;5042667;28;20053;-45
2022/09/19 06:22:44;;;;;;;12.38;6.30;;;8.30;99.90;;;;;;5054435;28;20055;-44
2022/09/19 06:25:14;;;;;;;7.78;3.00;;;8.50;99.90;;;;;;5056344;28;20075;-44
2022/09/19 06:27:44;;;;;;;3.20;1.10;;;8.60;99.90;;;;;;5064652;28;20402;-44
2022/09/19 06:30:12;;;;;;;0.60;0.52;;;8.70;99.90;;;;;;5054180;28;20052;-44
2022/09/19 06:32:50;;;;;;;4.20;0.90;;;8.80;99.90;;;;;;5056041;28;20049;-44
2022/09/19 06:35:18;;;;;;;3.58;1.35;;;8.80;99.90;;;;;;5056348;28;20047;-44
2022/09/19 06:37:46;;;;;;;2.00;0.50;;;8.60;99.90;;;;;;5051273;28;20045;-44
2022/09/19 06:40:22;;;;;;;1.92;0.82;;;8.50;99.90;;;;;;5056090;28;20128;-44
2022/09/19 06:43:05;;;;;;;1.33;0.88;;;8.50;99.90;;;;;;5056570;28;20129;-44
2022/09/19 06:45:52;;;;;;;2.28;0.70;;;8.50;99.90;;;;;;5069019;28;20052;-46
2022/09/19 06:48:39;;;;;;;2.53;0.90;;;8.50;99.90;;;;;;5073404;28;20527;-44
2022/09/19 06:51:23;;;;;;;1.10;0.70;;;8.50;99.90;;;;;;5055265;28;20061;-45
2022/09/19 06:53:51;;;;;;;3.97;0.52;;;8.50;99.90;;;;;;5050971;28;20048;-44
2022/09/19 06:56:18;;;;;;;;;;;8.50;99.90;;;;;;5056561;28;20051;-44
2022/09/19 06:58:46;;;;;;;1.87;0.90;;;8.40;99.90;;;;;;5072635;28;20416;-44
2022/09/19 07:01:14;;;;;;;3.78;0.95;;;8.40;99.90;;;;;;5055569;28;20536;-45
2022/09/19 07:03:41;;;;;;;1.00;0.90;;;8.30;99.90;;;;;;5063919;28;20044;-44
2022/09/19 07:06:11;;;;;;;2.85;0.77;;;8.40;99.90;;;;;;5052455;28;20578;-44
2022/09/19 07:08:57;;;;;;;0.98;0.75;;;8.50;99.90;;;;;;5055711;28;20067;-44
2022/09/19 07:11:24;;;;;;;2.55;0.65;;;8.50;99.90;;;;;;5050863;28;20041;-44
2022/09/19 07:13:55;;;;;;;1.63;0.70;;;8.50;99.90;;;;;;5073685;28;20725;-44
2022/09/19 07:16:22;;;;;;;0.50;0.50;;;8.40;99.90;;;;;;5055465;28;20048;-46
2022/09/19 07:18:50;;;;;;;1.67;0.88;;;8.40;99.90;;;;;;5048559;28;20115;-44
2022/09/19 07:21:33;;;;;;;0.85;0.40;;;8.40;99.90;;;;;;5047834;28;20443;-44
2022/09/19 07:24:05;;;;;;;2.95;0.70;;;8.40;99.90;;;;;;5054489;28;20520;-44
2022/09/19 07:26:59;;;;;;;1.20;0.60;;;8.50;99.90;;;;;;5056449;28;20182;-44
2022/09/19 07:29:27;;;;;;;8.02;0.68;;;8.70;99.90;;;;;;5069022;28;20049;-44
2022/09/19 07:31:54;;;;;;;2.97;0.60;;;8.80;99.90;;;;;;5035154;28;20065;-44
2022/09/19 07:34:23;;;;;;;0.75;0.30;;;8.80;99.90;;;;;;5038068;28;20075;-44
2022/09/19 07:36:52;;;;;;;4.68;0.80;;;8.80;99.90;;;;;;5051763;28;20520;-44
2022/09/19 07:39:19;;;;;;;2.83;1.08;;;8.70;99.90;;;;;;5051784;28;20045;-44
2022/09/19 07:42:16;;;;;;;6.10;1.00;;;8.60;99.90;;;;;;5029878;28;20416;-44
2022/09/19 07:45:06;;;;;;;2.20;0.63;;;8.70;99.90;;;;;;5042223;28;20413;-44
2022/09/19 07:47:51;;;;;;;1.17;0.90;;;8.70;99.90;;;;;;5073294;28;20059;-44
2022/09/19 07:50:37;;;;;;;6.07;0.90;;;8.70;99.90;;;;;;5073644;28;20523;-44
2022/09/19 07:53:21;;;;;;;2.13;0.85;;;8.70;99.90;;;;;;5053284;28;20049;-44
2022/09/19 07:55:51;;;;;;;2.05;0.88;;;8.80;99.90;;;;;;5068055;28;20055;-44
2022/09/19 07:58:20;;;;;;;0.85;0.68;;;8.90;99.90;;;;;;5034676;28;20156;-44
2022/09/19 08:00:52;;;;;;;8.30;0.90;;;9.10;99.90;;;;;;5038259;28;20041;-44
2022/09/19 08:03:46;;;;;;;1.90;1.10;;;9.20;99.90;;;;;;5047710;28;20532;-44
2022/09/19 08:06:15;;;;;;;2.95;1.05;;;9.30;99.90;;;;;;5053250;28;20076;-44
2022/09/19 08:08:42;;;;;;;7.00;0.90;;;9.40;99.90;;;;;;5071658;28;20079;-44
2022/09/19 08:11:27;;;;;;;3.90;1.45;;;9.50;99.90;;;;;;5060341;28;20124;-44
2022/09/19 08:13:54;;;;;;;5.13;1.40;;;9.60;99.90;;;;;;5046651;28;20140;-44
2022/09/19 08:16:23;;;;;;;5.38;2.13;;;9.60;99.90;;;;;;5063021;28;20052;-44
2022/09/19 08:18:50;;;;;;;3.38;1.75;;;9.60;99.90;;;;;;5061609;28;20037;-44
2022/09/19 08:21:18;;;;;;;3.17;1.67;;;9.80;99.90;;;;;;5051868;28;20046;-44
2022/09/19 08:23:46;;;;;;;3.55;1.38;;;9.90;99.90;;;;;;5054117;28;20048;-44
2022/09/19 08:26:12;;;;;;;2.60;1.52;;;10.00;99.90;;;;;;5043462;28;20061;-44
2022/09/19 08:28:39;;;;;;;2.30;1.58;;;10.00;99.90;;;;;;5051036;28;20045;-44
2022/09/19 08:31:07;;;;;;;5.78;2.10;;;10.10;99.90;;;;;;5050847;28;20044;-44
2022/09/19 08:33:38;;;;;;;6.85;1.52;;;10.20;99.90;;;;;;5053446;28;20099;-44
2022/09/19 08:36:09;;;;;;;8.68;1.30;;;10.30;99.90;;;;;;5050926;28;20075;-44
2022/09/19 08:38:36;;;;;;;4.75;1.30;;;10.40;99.90;;;;;;5054053;28;20043;-44
2022/09/19 08:41:28;;;;;;;4.28;1.20;;;10.50;99.90;;;;;;5054442;28;20036;-46
2022/09/19 08:44:09;;;;;;;5.07;1.33;;;10.40;99.90;;;;;;5052295;28;20052;-44
2022/09/19 08:46:42;;;;;;;1.63;1.17;;;10.50;99.90;;;;;;5070573;28;20568;-44
2022/09/19 08:49:18;;;;;;;2.80;1.25;;;10.60;99.90;;;;;;5070726;28;20059;-44
2022/09/19 08:52:04;;;;;;;5.47;0.98;;;10.70;99.90;;;;;;5062434;28;20060;-44
2022/09/19 08:54:41;;;;;;;6.05;1.00;;;10.70;99.90;;;;;;5062906;28;20124;-44
2022/09/19 08:57:22;;;;;;;2.92;0.70;;;10.70;99.90;;;;;;5066861;28;20136;-44
2022/09/19 08:59:54;;;;;;;3.47;1.58;;;10.70;99.90;;;;;;5033183;28;20045;-44
2022/09/19 09:02:36;;;;;;;6.55;1.00;;;10.30;99.90;;;;;;5036421;28;20045;-44
2022/09/19 09:05:55;;;;;;;2.47;0.70;;;10.20;99.90;;;;;;5053141;28;20550;-44
2022/09/19 09:08:59;;;;;;;3.88;0.75;;;10.10;99.90;;;;;;5052446;28;20522;-44
2022/09/19 09:11:34;;;;;;;;;;;10.10;99.90;;;;;;5071683;28;20485;-45
2022/09/19 09:14:22;;;;;;;5.68;1.25;;;10.10;99.90;;;;;;5066977;28;20019;-44
2022/09/19 09:17:08;;;;;;;3.33;0.77;;;10.10;99.90;;;;;;5047842;28;20104;-44
2022/09/19 09:19:54;;;;;;;2.97;1.27;;;10.10;99.90;;;;;;5057004;28;20424;-44
2022/09/19 09:22:37;;;;;;;4.88;1.00;;;10.00;99.90;;;;;;5070195;28;20050;-44
2022/09/19 09:25:35;;;;;;;1.50;0.73;;;10.00;99.90;;;;;;5070898;28;20040;-44
2022/09/19 09:28:12;;;;;;;0.93;0.50;;;10.10;99.90;;;;;;5051141;28;20044;-44
2022/09/19 09:30:56;;;;;;;2.40;0.50;;;10.20;99.90;;;;;;5053419;28;20041;-44
2022/09/19 09:33:37;;;;;;;5.60;0.73;;;10.30;99.90;;;;;;5053193;28;20070;-44
2022/09/19 09:36:13;;;;;;;1.88;0.65;;;10.40;99.90;;;;;;5051662;28;20048;-44
2022/09/19 09:38:49;;;;;;;1.80;1.02;;;10.60;99.90;;;;;;5053096;28;20421;-44
2022/09/19 09:41:51;;;;;;;4.03;1.23;;;10.80;99.90;;;;;;5053351;28;20043;-44
2022/09/19 09:44:51;;;;;;;4.65;1.50;;;10.90;99.90;;;;;;5043122;28;20048;-44
2022/09/19 09:47:28;;;;;;;3.58;1.30;;;11.10;99.90;;;;;;5053010;28;20044;-44
2022/09/19 09:50:06;;;;;;;2.92;1.10;;;11.20;99.90;;;;;;5070220;28;20048;-44
2022/09/19 09:52:46;;;;;;;;;;;11.30;99.90;;;;;;5050149;28;20056;-44
2022/09/19 09:58:52;;;;;;;4.70;1.20;;;11.30;99.90;;;;;;5052830;28;20041;-44
2022/09/19 10:05:01;;;;;;;3.28;1.13;;;11.30;99.90;;;;;;5041596;28;20041;-45
2022/09/19 10:07:41;;;;;;;7.85;1.70;;;11.20;99.90;;;;;;5047721;28;20044;-44
2022/09/19 10:10:14;;;;;;;5.70;1.35;;;11.10;99.90;;;;;;5046530;28;20096;-44
2022/09/19 10:12:45;;;;;;;8.32;1.67;;;11.10;99.90;;;;;;5054710;28;20668;-45
2022/09/19 10:15:24;;;;;;;4.18;1.45;;;11.00;99.90;;;;;;5072687;28;20494;-44
2022/09/19 10:18:13;;;;;;;3.38;1.35;;;10.80;99.90;;;;;;5077999;28;20501;-44
2022/09/19 10:20:53;;;;;;;2.88;1.50;;;10.60;99.90;;;;;;5066288;28;20041;-44
2022/09/19 10:23:29;;;;;;;2.72;1.20;;;10.60;99.90;;;;;;5032110;28;20045;-45
2022/09/19 10:26:05;;;;;;;3.50;1.17;;;10.50;99.90;;;;;;5068484;28;20460;-44
2022/09/19 10:28:40;;;;;;;5.60;1.15;;;10.50;99.90;;;;;;5044139;28;20099;-44
2022/09/19 10:31:41;;;;;;;3.65;0.88;;;10.60;99.90;;;;;;5029664;28;20089;-44
2022/09/19 10:34:49;;;;;;;1.65;0.75;;;10.60;99.90;;;;;;5049693;28;20048;-44
2022/09/19 10:37:26;;;;;;;2.00;0.60;;;10.60;99.90;;;;;;5066796;28;20044;-44
2022/09/19 10:39:59;;;;;;;2.00;0.63;;;10.70;99.90;;;;;;5051787;28;20106;-44
2022/09/19 10:42:37;;;;;;;2.65;1.05;;;10.80;99.90;;;;;;5053075;28;20052;-44
2022/09/19 10:45:37;;;;;;;3.05;1.33;;;10.80;99.90;;;;;;5043078;28;20045;-44
2022/09/19 10:48:29;;;;;;;4.53;1.50;;;11.00;99.90;;;;;;5038366;28;20076;-44
2022/09/19 10:50:57;;;;;;;2.65;1.00;;;11.20;99.90;;;;;;5052325;28;20128;-45
2022/09/19 10:53:30;;;;;;;3.40;0.75;;;11.30;99.90;;;;;;5055439;28;20040;-44
2022/09/19 10:56:02;;;;;;;1.40;0.47;;;11.30;99.90;;;;;;5074000;28;20033;-44
2022/09/19 10:58:37;;;;;;;2.25;0.60;;;11.40;99.90;;;;;;5054888;28;20090;-44
2022/09/19 11:01:24;;;;;;;3.22;0.43;;;11.50;99.90;;;;;;5056364;28;20520;-44
2022/09/19 11:04:21;;;;;;;3.78;0.50;;;11.50;99.90;;;;;;5045825;28;20479;-44
2022/09/19 11:06:57;;;;;;;0.85;0.40;;;11.60;99.90;;;;;;5055807;28;20040;-45
2022/09/19 11:09:26;;;;;;;1.67;0.38;;;11.70;99.90;;;;;;5055970;28;20140;-44
2022/09/19 11:12:09;;;;;;;0.68;0.30;;;11.80;99.90;;;;;;5050947;28;20170;-44
2022/09/19 11:14:48;;;;;;;2.33;0.40;;;11.90;99.90;;;;;;5045305;28;20156;-44
2022/09/19 11:17:47;;;;;;;2.95;0.47;;;12.00;99.90;;;;;;5052071;28;20040;-45
2022/09/19 11:20:40;;;;;;;1.27;0.43;;;12.00;99.90;;;;;;5055338;28;20135;-44
2022/09/19 11:23:43;;;;;;;0.95;0.40;;;12.00;99.90;;;;;;5055860;28;20528;-45
2022/09/19 11:26:20;;;;;;;1.60;0.85;;;12.00;99.90;;;;;;5045408;28;20053;-44
2022/09/19 11:28:55;;;;;;;6.53;0.90;;;12.00;99.90;;;;;;5055604;28;20040;-45
2022/09/19 11:31:42;;;;;;;3.80;0.50;;;12.00;99.90;;;;;;5071150;28;20044;-44
2022/09/19 11:34:50;;;;;;;3.13;0.50;;;12.10;99.90;;;;;;5053287;28;20071;-44
2022/09/19 11:37:53;;;;;;;0.85;0.30;;;12.20;99.90;;;;;;5072230;28;20098;-45
2022/09/19 11:40:39;;;;;;;0.60;0.22;;;12.40;99.90;;;;;;5055317;28;20076;-44
2022/09/19 11:43:29;;;;;;;1.65;0.30;;;12.50;99.90;;;;;;5055680;28;20040;-44
2022/09/19 11:46:12;;;;;;;1.27;0.32;;;12.50;99.90;;;;;;5054025;28;20048;-44
2022/09/19 11:49:15;;;;;;;1.10;0.40;;;12.40;99.90;;;;;;5061191;28;20037;-44
2022/09/19 11:51:57;;;;;;;0.88;0.32;;;12.50;99.90;;;;;;5064770;28;20037;-46
2022/09/19 11:54:49;;;;;;;0.85;0.35;;;12.60;99.90;;;;;;5060908;28;20044;-44
2022/09/19 11:57:39;;;;;;;0.52;0.40;;;12.60;99.90;;;;;;5036477;28;20095;-44
2022/09/19 12:00:19;;;;;;;6.22;0.50;;;12.50;99.90;;;;;;5050709;28;20044;-44
2022/09/19 12:03:36;;;;;;;2.13;0.30;;;12.50;99.90;;;;;;5047657;28;20079;-45
2022/09/19 12:06:31;;;;;;;1.88;0.30;;;12.40;99.90;;;;;;5011658;22;20561;-46
2022/09/19 12:09:13;;;;;;;3.30;0.50;;;12.40;99.90;;;;;;5072137;28;20454;-47
2022/09/19 12:11:50;;;;;;;1.05;0.38;;;12.30;99.90;;;;;;5070335;28;20044;-46
2022/09/19 12:14:31;;;;;;;1.52;0.40;;;12.20;99.90;;;;;;5073959;28;20109;-47
2022/09/19 12:17:26;;;;;;;3.47;0.40;;;12.10;99.90;;;;;;5080191;28;20039;-46
2022/09/19 12:20:17;;;;;;;0.40;0.20;;;12.00;99.90;;;;;;5100595;28;20047;-45
2022/09/19 12:22:56;;;;;;;3.58;0.43;;;11.90;99.90;;;;;;5093768;28;20453;-45
2022/09/19 12:25:29;;;;;;;2.35;0.20;;;11.80;99.90;;;;;;5074544;28;20052;-45
2022/09/19 12:28:15;;;;;;;1.02;0.30;;;11.70;99.90;;;;;;5105499;28;20036;-45
2022/09/19 12:30:48;;;;;;;4.65;0.47;;;11.60;99.90;;;;;;5095020;28;20047;-45
2022/09/19 12:33:33;;;;;;;2.35;0.40;;;11.40;99.90;;;;;;5086034;28;20567;-45
2022/09/19 12:36:11;;;;;;;2.05;0.20;;;11.50;99.90;;;;;;5113194;28;20035;-45
2022/09/19 12:39:03;;;;;;;0.22;0.17;;;11.50;99.90;;;;;;5093480;28;20048;-45
2022/09/19 12:41:40;;;;;;;1.55;0.20;;;11.80;99.90;;;;;;5102838;28;20040;-45
2022/09/19 12:44:21;;;;;;;2.33;0.20;;;12.30;99.90;;;;;;5092192;28;20077;-47
2022/09/19 12:47:04;;;;;;;1.58;0.43;;;12.40;99.90;;;;;;5088461;28;20043;-49
2022/09/19 12:50:33;;;;;;;2.38;0.30;;;12.50;99.90;;;;;;5089882;28;20527;-45
2022/09/19 12:53:18;;;;;;;0.32;0.10;;;12.80;99.90;;;;;;5112126;28;20296;-45
2022/09/19 12:56:03;;;;;;;2.25;0.30;;;13.10;99.90;;;;;;5105869;28;20059;-45
2022/09/19 12:58:53;;;;;;;0.40;0.20;;;13.20;99.90;;;;;;5096182;28;20559;-45
2022/09/19 13:01:35;;;;;;;0.40;0.32;;;13.10;99.90;;;;;;5110853;28;20075;-45
2022/09/19 13:04:31;;;;;;;1.08;0.40;;;13.00;99.90;;;;;;5112211;28;20053;-45
2022/09/19 13:07:18;;;;;;;1.80;0.30;;;13.00;99.90;;;;;;5103218;28;20047;-45
2022/09/19 13:09:58;;;;;;;0.20;0.20;;;12.90;99.90;;;;;;5092122;28;20039;-45
2022/09/19 13:12:44;;;;;;;2.25;0.85;;;12.90;99.90;;;;;;5091649;28;20488;-46
2022/09/19 13:15:20;;;;;;;3.92;0.60;;;13.00;99.90;;;;;;5091660;28;20179;-45
2022/09/19 13:23:32;;;;;;;1.23;0.50;;;13.00;99.90;;;;;;5101944;28;20040;-45
2022/09/19 13:26:35;;;;;;;2.63;0.50;;;13.30;99.90;;;;;;5111995;28;20051;-46
2022/09/19 13:29:24;;;;;;;4.32;0.50;;;13.70;99.90;;;;;;5102852;28;20048;-45
2022/09/19 13:31:53;;;;;;;0.65;0.43;;;13.70;99.90;;;;;;5106065;28;20499;-46
2022/09/19 13:34:42;;;;;;;1.95;1.05;;;13.60;99.90;;;;;;5111340;28;20084;-45
2022/09/19 13:37:28;;;;;;;1.65;0.40;;;13.30;99.90;;;;;;5109550;28;20450;-45
2022/09/19 13:40:25;;;;;;;1.40;0.30;;;13.10;99.90;;;;;;5098488;28;20070;-45
2022/09/19 13:42:52;;;;;;;0.88;0.60;;;12.90;99.90;;;;;;5109449;28;20388;-45
2022/09/19 13:45:30;;;;;;;2.35;0.40;;;12.90;99.90;;;;;;5094670;28;20105;-45
2022/09/19 13:48:22;;;;;;;0.55;0.30;;;12.80;99.90;;;;;;5101362;28;20159;-46
2022/09/19 13:50:55;;;;;;;3.80;0.40;;;12.80;99.90;;;;;;5111363;28;20071;-46
2022/09/19 13:53:38;;;;;;;0.73;0.40;;;12.80;99.90;;;;;;5110747;28;20116;-45
2022/09/19 13:56:24;;;;;;;2.33;0.40;;;12.80;99.90;;;;;;5111083;28;20093;-45
2022/09/19 13:59:28;;;;;;;2.70;0.52;;;12.90;99.90;;;;;;5096910;28;20039;-45
2022/09/19 14:02:05;;;;;;;4.05;1.20;;;13.20;99.90;;;;;;5047789;28;20107;-45
2022/09/19 14:04:53;;;;;;;2.17;0.52;;;13.20;99.90;;;;;;5096147;28;20055;-45
2022/09/19 14:07:37;;;;;;;3.75;0.50;;;13.30;99.90;;;;;;5111337;28;20048;-45
2022/09/19 14:10:36;;;;;;;5.55;0.47;;;13.40;99.90;;;;;;5111741;28;20598;-46